Time;durP1;ratioP1;P1;durP2;ratioP2;P2;SDS_P1;SDS_P2;PMS_P1;PMS_P2;Temp;Humidity;BMP_temperature;BMP_pressure;BME280_temperature;BME280_humidity;BME280_pressure;Samples;Min_cycle;Max_cycle;Signal;HPM_P1;HPM_P2
2023/09/28 00:03:20;;;;;;;10.50;9.40;;;;;;;;;;112592;210;44058;-41
2023/09/28 00:05:57;;;;;;;10.20;9.20;;;;;;;;;;112599;210;42744;-42
2023/09/28 00:08:33;;;;;;;10.40;9.10;;;;;;;;;;112587;210;43191;-41
2023/09/28 00:11:11;;;;;;;10.20;9.10;;;;;;;;;;112601;209;38952;-41
2023/09/28 00:13:45;;;;;;;10.20;9.10;;;;;;;;;;112621;210;39710;-40
2023/09/28 00:16:21;;;;;;;11.60;9.60;;;;;;;;;;112630;210;44037;-41
2023/09/28 00:18:56;;;;;;;10.00;9.00;;;;;;;;;;112463;210;175498;-41
2023/09/28 00:21:33;;;;;;;11.20;9.30;;;;;;;;;;112524;209;44568;-41
2023/09/28 00:24:12;;;;;;;9.90;8.90;;;;;;;;;;112648;209;40436;-41
2023/09/28 00:26:47;;;;;;;10.00;9.00;;;;;;;;;;112597;210;42981;-40
2023/09/28 00:29:27;;;;;;;10.50;9.40;;;;;;;;;;112596;209;43393;-41
2023/09/28 00:32:02;;;;;;;10.20;9.20;;;;;;;;;;112627;210;45282;-40
2023/09/28 00:34:37;;;;;;;10.60;9.50;;;;;;;;;;112582;210;39601;-40
2023/09/28 00:37:16;;;;;;;9.90;8.90;;;;;;;;;;112622;210;44348;-42
2023/09/28 00:39:54;;;;;;;10.00;8.80;;;;;;;;;;112577;209;42317;-41
2023/09/28 00:42:29;;;;;;;9.90;8.80;;;;;;;;;;112596;210;38896;-41
2023/09/28 00:45:08;;;;;;;10.70;9.40;;;;;;;;;;112608;210;39802;-40
2023/09/28 00:47:43;;;;;;;10.40;9.40;;;;;;;;;;112629;210;44081;-41
2023/09/28 00:50:20;;;;;;;10.40;9.30;;;;;;;;;;112568;209;43432;-40
2023/09/28 00:53:00;;;;;;;11.30;9.00;;;;;;;;;;112549;210;38867;-41
2023/09/28 00:55:36;;;;;;;10.60;9.50;;;;;;;;;;112566;210;39652;-41
2023/09/28 00:58:10;;;;;;;10.30;9.20;;;;;;;;;;112577;210;42759;-41
2023/09/28 01:00:44;;;;;;;10.50;9.30;;;;;;;;;;112510;209;43434;-42
2023/09/28 01:03:20;;;;;;;10.60;9.50;;;;;;;;;;112572;210;38890;-42
2023/09/28 01:05:54;;;;;;;10.00;9.00;;;;;;;;;;112631;210;40817;-40
2023/09/28 01:08:29;;;;;;;10.50;9.50;;;;;;;;;;112532;210;42930;-42
2023/09/28 01:11:10;;;;;;;10.40;9.20;;;;;;;;;;112528;209;43667;-41
2023/09/28 01:13:45;;;;;;;10.10;8.90;;;;;;;;;;112544;210;38731;-41
2023/09/28 01:16:21;;;;;;;10.60;9.40;;;;;;;;;;112521;210;39671;-42
2023/09/28 01:18:55;;;;;;;11.10;10.10;;;;;;;;;;112528;209;42938;-42
2023/09/28 01:21:31;;;;;;;10.70;9.60;;;;;;;;;;112538;209;41790;-41
2023/09/28 01:24:06;;;;;;;10.90;9.50;;;;;;;;;;112567;210;38898;-43
2023/09/28 01:26:39;;;;;;;11.20;9.50;;;;;;;;;;112596;210;39783;-41
2023/09/28 01:29:14;;;;;;;10.60;9.50;;;;;;;;;;112548;210;42709;-41
2023/09/28 01:31:48;;;;;;;10.50;9.40;;;;;;;;;;112459;209;42514;-41
2023/09/28 01:34:27;;;;;;;10.60;9.50;;;;;;;;;;112570;210;38961;-41
2023/09/28 01:37:05;;;;;;;11.40;9.60;;;;;;;;;;112595;209;39783;-40
2023/09/28 01:39:45;;;;;;;10.40;9.30;;;;;;;;;;112569;210;42746;-41
2023/09/28 01:42:22;;;;;;;11.10;10.00;;;;;;;;;;112530;209;43463;-41
2023/09/28 01:44:57;;;;;;;11.10;9.90;;;;;;;;;;112582;210;38733;-40
2023/09/28 01:47:33;;;;;;;11.50;9.80;;;;;;;;;;111837;209;894009;-41
2023/09/28 01:50:09;;;;;;;11.60;10.40;;;;;;;;;;112580;210;42976;-40
2023/09/28 01:52:43;;;;;;;10.80;9.70;;;;;;;;;;112541;209;42102;-41
2023/09/28 01:55:17;;;;;;;11.40;10.20;;;;;;;;;;112618;210;38991;-41
2023/09/28 01:57:54;;;;;;;10.90;9.80;;;;;;;;;;112581;209;39316;-41
2023/09/28 02:00:33;;;;;;;11.20;10.10;;;;;;;;;;112565;209;43111;-41
2023/09/28 02:03:09;;;;;;;11.30;10.10;;;;;;;;;;112541;209;42264;-40
2023/09/28 02:05:47;;;;;;;11.20;10.00;;;;;;;;;;112576;209;38704;-41
2023/09/28 02:08:24;;;;;;;11.30;10.10;;;;;;;;;;112616;210;39790;-42
2023/09/28 02:11:00;;;;;;;11.00;9.90;;;;;;;;;;112589;210;43123;-41
2023/09/28 02:13:37;;;;;;;12.10;10.70;;;;;;;;;;112510;209;42346;-41
2023/09/28 02:16:14;;;;;;;11.20;10.10;;;;;;;;;;112561;210;38719;-41
2023/09/28 02:18:48;;;;;;;11.00;9.90;;;;;;;;;;112583;210;39609;-43
2023/09/28 02:21:24;;;;;;;11.50;10.20;;;;;;;;;;112600;209;42775;-42
2023/09/28 02:23:59;;;;;;;11.60;10.40;;;;;;;;;;112567;209;42116;-41
2023/09/28 02:26:33;;;;;;;11.50;10.40;;;;;;;;;;112587;210;38919;-42
2023/09/28 02:29:13;;;;;;;11.70;10.50;;;;;;;;;;112605;209;39730;-41
2023/09/28 02:31:48;;;;;;;11.50;10.30;;;;;;;;;;112618;210;43147;-42
2023/09/28 02:34:24;;;;;;;11.70;10.50;;;;;;;;;;112635;209;47969;-41
2023/09/28 02:37:03;;;;;;;12.10;10.70;;;;;;;;;;112562;210;39202;-41
2023/09/28 02:39:39;;;;;;;12.20;10.70;;;;;;;;;;112591;209;39534;-41
2023/09/28 02:42:19;;;;;;;11.60;10.30;;;;;;;;;;112569;209;42732;-42
2023/09/28 02:44:53;;;;;;;12.20;10.80;;;;;;;;;;112578;209;48320;-41
2023/09/28 02:47:29;;;;;;;11.50;10.30;;;;;;;;;;112267;210;39049;-41
2023/09/28 02:50:06;;;;;;;12.10;10.80;;;;;;;;;;112567;210;39684;-41
2023/09/28 02:52:40;;;;;;;11.30;10.10;;;;;;;;;;112582;209;42986;-40
2023/09/28 02:55:24;;;;;;;11.30;10.20;;;;;;;;;;112626;210;48358;-41
2023/09/28 02:57:58;;;;;;;11.50;10.30;;;;;;;;;;112535;209;38784;-41
2023/09/28 03:00:36;;;;;;;11.60;10.40;;;;;;;;;;112603;210;39768;-41
2023/09/28 03:03:10;;;;;;;11.70;10.20;;;;;;;;;;112502;209;42768;-41
2023/09/28 03:05:44;;;;;;;12.10;10.80;;;;;;;;;;112520;210;42377;-41
2023/09/28 03:08:17;;;;;;;11.30;10.20;;;;;;;;;;112513;210;38937;-41
2023/09/28 03:10:53;;;;;;;11.40;10.30;;;;;;;;;;112541;210;39769;-41
2023/09/28 03:13:29;;;;;;;11.20;9.90;;;;;;;;;;112469;209;42920;-41
2023/09/28 03:16:03;;;;;;;11.30;10.10;;;;;;;;;;112517;210;41791;-42
2023/09/28 03:18:37;;;;;;;11.10;9.90;;;;;;;;;;112537;210;38729;-43
2023/09/28 03:21:14;;;;;;;11.10;10.00;;;;;;;;;;112529;210;39805;-40
2023/09/28 03:23:48;;;;;;;11.40;10.30;;;;;;;;;;112461;209;43071;-41
2023/09/28 03:26:24;;;;;;;11.80;10.60;;;;;;;;;;112505;210;42122;-41
2023/09/28 03:28:59;;;;;;;11.90;10.30;;;;;;;;;;112547;210;37716;-41
2023/09/28 03:31:34;;;;;;;11.40;10.20;;;;;;;;;;112545;210;39908;-42
2023/09/28 03:34:09;;;;;;;11.30;10.20;;;;;;;;;;112535;209;43037;-42
2023/09/28 03:36:44;;;;;;;11.00;9.90;;;;;;;;;;112581;210;42452;-41
2023/09/28 03:39:21;;;;;;;10.80;9.70;;;;;;;;;;112537;210;38898;-41
2023/09/28 03:41:58;;;;;;;11.40;10.10;;;;;;;;;;112626;210;40672;-41
2023/09/28 03:44:32;;;;;;;11.60;10.40;;;;;;;;;;112590;209;42721;-42
2023/09/28 03:47:07;;;;;;;11.30;10.10;;;;;;;;;;112584;210;42880;-41
2023/09/28 03:49:45;;;;;;;11.30;10.10;;;;;;;;;;112590;210;39149;-41
2023/09/28 03:52:22;;;;;;;10.90;9.80;;;;;;;;;;112602;210;39582;-41
2023/09/28 03:54:56;;;;;;;11.30;9.90;;;;;;;;;;112394;210;42797;-41
2023/09/28 03:57:35;;;;;;;11.60;10.40;;;;;;;;;;112437;210;41956;-42
2023/09/28 04:00:13;;;;;;;11.20;10.10;;;;;;;;;;112395;210;38815;-41
2023/09/28 04:02:52;;;;;;;10.40;9.40;;;;;;;;;;112469;210;40005;-41
2023/09/28 04:05:49;;;;;;;10.90;9.80;;;;;;;;;;112404;210;42827;-40
2023/09/28 04:08:30;;;;;;;11.10;10.00;;;;;;;;;;112454;210;42074;-40
2023/09/28 04:11:04;;;;;;;10.80;9.70;;;;;;;;;;112432;210;38566;-41
2023/09/28 04:13:41;;;;;;;11.70;10.10;;;;;;;;;;112342;210;175242;-41
2023/09/28 04:16:19;;;;;;;11.20;10.00;;;;;;;;;;112389;210;43073;-41
2023/09/28 04:18:56;;;;;;;11.30;10.10;;;;;;;;;;112443;210;42102;-41
2023/09/28 04:21:35;;;;;;;11.30;10.10;;;;;;;;;;112420;210;38741;-41
2023/09/28 04:24:10;;;;;;;11.20;9.90;;;;;;;;;;112461;210;39568;-41
2023/09/28 04:26:47;;;;;;;11.50;10.40;;;;;;;;;;112397;210;43165;-41
2023/09/28 04:29:24;;;;;;;12.90;10.60;;;;;;;;;;111659;210;892510;-41
2023/09/28 04:32:01;;;;;;;11.60;10.40;;;;;;;;;;112414;210;38932;-41
2023/09/28 04:34:37;;;;;;;11.60;10.40;;;;;;;;;;112421;210;39349;-41
2023/09/28 04:37:16;;;;;;;11.80;10.20;;;;;;;;;;112384;210;48331;-41
2023/09/28 04:39:53;;;;;;;11.60;10.40;;;;;;;;;;112379;210;42789;-40
2023/09/28 04:42:27;;;;;;;11.10;9.90;;;;;;;;;;112412;210;38973;-40
2023/09/28 04:45:04;;;;;;;11.60;10.40;;;;;;;;;;112433;210;39932;-41
2023/09/28 04:47:39;;;;;;;11.40;10.20;;;;;;;;;;112442;210;49035;-41
2023/09/28 04:50:14;;;;;;;12.30;10.50;;;;;;;;;;112366;210;42257;-41
2023/09/28 04:52:50;;;;;;;11.60;10.40;;;;;;;;;;112496;210;38709;-41
2023/09/28 04:55:28;;;;;;;11.40;10.20;;;;;;;;;;112604;209;39778;-41
2023/09/28 04:58:03;;;;;;;12.30;10.60;;;;;;;;;;112624;210;49367;-40
2023/09/28 05:00:38;;;;;;;11.90;10.70;;;;;;;;;;112578;210;42212;-41
2023/09/28 05:03:14;;;;;;;11.20;10.10;;;;;;;;;;112605;210;38706;-41
2023/09/28 05:05:48;;;;;;;12.00;10.90;;;;;;;;;;112574;209;40008;-43
2023/09/28 05:08:26;;;;;;;11.60;10.50;;;;;;;;;;112576;210;50047;-42
2023/09/28 05:11:02;;;;;;;12.00;10.80;;;;;;;;;;112553;210;42079;-42
2023/09/28 05:13:39;;;;;;;12.00;10.80;;;;;;;;;;112578;210;38874;-41
2023/09/28 05:16:17;;;;;;;11.90;10.70;;;;;;;;;;112519;209;39861;-42
2023/09/28 05:18:55;;;;;;;13.00;10.50;;;;;;;;;;112565;210;42991;-42
2023/09/28 05:21:30;;;;;;;12.40;11.10;;;;;;;;;;112482;210;175606;-41
2023/09/28 05:24:06;;;;;;;11.30;10.20;;;;;;;;;;112579;210;38903;-41
2023/09/28 05:26:40;;;;;;;11.50;10.40;;;;;;;;;;112427;209;175550;-41
2023/09/28 05:29:15;;;;;;;11.90;10.10;;;;;;;;;;112576;210;43040;-42
2023/09/28 05:31:51;;;;;;;11.60;10.40;;;;;;;;;;112572;210;42120;-42
2023/09/28 05:34:26;;;;;;;11.90;10.30;;;;;;;;;;112587;209;38702;-41
2023/09/28 05:37:01;;;;;;;11.20;10.10;;;;;;;;;;112533;209;40615;-41
2023/09/28 05:39:38;;;;;;;11.90;10.30;;;;;;;;;;112597;210;42807;-41
2023/09/28 05:42:13;;;;;;;12.00;10.60;;;;;;;;;;112587;210;42503;-45
2023/09/28 05:44:50;;;;;;;11.20;10.10;;;;;;;;;;112569;210;38700;-42
2023/09/28 05:47:24;;;;;;;12.30;10.80;;;;;;;;;;112557;209;39889;-46
2023/09/28 05:49:59;;;;;;;11.20;10.00;;;;;;;;;;112602;209;42778;-41
2023/09/28 05:52:33;;;;;;;11.80;10.60;;;;;;;;;;112661;210;42250;-44
2023/09/28 05:55:10;;;;;;;12.10;10.90;;;;;;;;;;112630;209;38696;-41
2023/09/28 05:57:44;;;;;;;11.90;10.60;;;;;;;;;;112606;209;39309;-41
2023/09/28 06:00:20;;;;;;;12.50;11.20;;;;;;;;;;112615;210;42744;-44
2023/09/28 06:02:59;;;;;;;11.90;10.70;;;;;;;;;;112624;209;42537;-41
2023/09/28 06:05:33;;;;;;;11.50;10.40;;;;;;;;;;112640;210;39220;-43
2023/09/28 06:08:07;;;;;;;12.20;10.90;;;;;;;;;;112577;209;40757;-41
2023/09/28 06:10:44;;;;;;;12.20;10.80;;;;;;;;;;112682;210;44393;-41
2023/09/28 06:13:20;;;;;;;12.50;11.20;;;;;;;;;;112646;209;43592;-41
2023/09/28 06:15:54;;;;;;;12.10;10.80;;;;;;;;;;112646;210;38894;-41
2023/09/28 06:18:28;;;;;;;13.20;11.00;;;;;;;;;;112559;209;39845;-42
2023/09/28 06:21:02;;;;;;;12.20;10.90;;;;;;;;;;112618;209;42929;-42
2023/09/28 06:23:38;;;;;;;13.20;11.80;;;;;;;;;;112637;210;43552;-41
2023/09/28 06:26:12;;;;;;;13.00;11.60;;;;;;;;;;112608;209;39541;-41
2023/09/28 06:29:03;;;;;;;12.80;11.50;;;;;;;;;;112558;209;39643;-42
2023/09/28 06:31:38;;;;;;;14.10;12.00;;;;;;;;;;112615;210;42982;-41
2023/09/28 06:34:16;;;;;;;14.00;12.10;;;;;;;;;;112570;209;42129;-42
2023/09/28 06:36:55;;;;;;;13.50;12.10;;;;;;;;;;112604;209;38718;-43
2023/09/28 06:39:34;;;;;;;13.60;11.90;;;;;;;;;;112538;209;40021;-42
2023/09/28 06:42:10;;;;;;;13.20;11.90;;;;;;;;;;112501;210;196225;-44
2023/09/28 06:45:08;;;;;;;12.80;11.40;;;;;;;;;;112551;210;42259;-39
2023/09/28 06:47:44;;;;;;;13.80;12.20;;;;;;;;;;112510;210;38950;-41
2023/09/28 06:50:34;;;;;;;13.20;11.80;;;;;;;;;;112523;210;45394;-36
2023/09/28 06:53:12;;;;;;;12.90;11.50;;;;;;;;;;112370;210;43870;-38
2023/09/28 06:55:49;;;;;;;14.20;12.10;;;;;;;;;;112501;210;42151;-39
2023/09/28 06:58:42;;;;;;;15.30;11.80;;;;;;;;;;112492;209;39968;-43
2023/09/28 07:01:18;;;;;;;12.90;11.50;;;;;;;;;;112506;210;39797;-40
2023/09/28 07:03:52;;;;;;;13.90;11.90;;;;;;;;;;112495;210;42761;-39
2023/09/28 07:06:29;;;;;;;12.90;11.50;;;;;;;;;;112562;210;42156;-41
2023/09/28 07:09:05;;;;;;;13.80;12.10;;;;;;;;;;112472;209;38743;-39
2023/09/28 07:11:42;;;;;;;13.90;11.90;;;;;;;;;;112524;210;40980;-38
2023/09/28 07:14:20;;;;;;;16.10;11.80;;;;;;;;;;112523;210;42966;-40
2023/09/28 07:16:56;;;;;;;14.80;11.90;;;;;;;;;;112517;210;42304;-37
2023/09/28 07:19:30;;;;;;;14.10;12.00;;;;;;;;;;112475;209;40141;-39
2023/09/28 07:22:08;;;;;;;15.30;11.80;;;;;;;;;;112519;210;39826;-39
2023/09/28 07:24:42;;;;;;;13.20;11.20;;;;;;;;;;112536;210;42541;-41
2023/09/28 07:27:17;;;;;;;14.60;11.30;;;;;;;;;;112549;210;42239;-37
2023/09/28 07:29:51;;;;;;;13.70;11.80;;;;;;;;;;111832;209;893196;-38
2023/09/28 07:32:25;;;;;;;13.10;11.00;;;;;;;;;;112562;210;39822;-39
2023/09/28 07:35:03;;;;;;;14.50;11.40;;;;;;;;;;112526;210;42989;-38
2023/09/28 07:37:43;;;;;;;13.80;11.00;;;;;;;;;;112486;210;42529;-36
2023/09/28 07:40:24;;;;;;;12.60;11.00;;;;;;;;;;112499;209;39521;-38
2023/09/28 07:43:22;;;;;;;12.80;11.00;;;;;;;;;;112529;210;39726;-38
2023/09/28 07:45:58;;;;;;;13.20;11.40;;;;;;;;;;112393;210;175514;-36
2023/09/28 07:48:32;;;;;;;13.60;11.30;;;;;;;;;;112455;210;42662;-37
2023/09/28 07:51:08;;;;;;;14.00;11.10;;;;;;;;;;112513;209;38757;-35
2023/09/28 07:53:44;;;;;;;13.40;11.60;;;;;;;;;;112449;210;41221;-38
2023/09/28 07:56:19;;;;;;;12.30;10.90;;;;;;;;;;112531;210;42517;-40
2023/09/28 07:58:57;;;;;;;13.70;11.50;;;;;;;;;;112486;210;41851;-40
2023/09/28 08:01:32;;;;;;;13.20;10.80;;;;;;;;;;112479;210;38481;-40
2023/09/28 08:04:09;;;;;;;13.20;11.20;;;;;;;;;;112514;210;40827;-39
2023/09/28 08:06:47;;;;;;;12.50;10.90;;;;;;;;;;112430;210;44424;-38
2023/09/28 08:09:23;;;;;;;13.90;10.90;;;;;;;;;;112498;210;41951;-38
2023/09/28 08:11:58;;;;;;;12.90;10.90;;;;;;;;;;112516;210;38908;-36
2023/09/28 08:14:39;;;;;;;13.10;11.40;;;;;;;;;;112498;210;39601;-36
2023/09/28 08:17:18;;;;;;;12.80;11.10;;;;;;;;;;112559;210;43012;-36
2023/09/28 08:19:56;;;;;;;11.80;10.60;;;;;;;;;;112582;210;42125;-38
2023/09/28 08:22:35;;;;;;;12.10;10.80;;;;;;;;;;112544;209;44441;-39
2023/09/28 08:25:12;;;;;;;13.10;10.90;;;;;;;;;;112590;210;41124;-39
2023/09/28 08:27:49;;;;;;;12.10;10.80;;;;;;;;;;112536;210;42931;-37
2023/09/28 08:30:26;;;;;;;12.30;10.70;;;;;;;;;;112487;210;42354;-38
2023/09/28 08:33:02;;;;;;;12.90;10.50;;;;;;;;;;112500;210;45922;-40
2023/09/28 08:35:36;;;;;;;11.90;10.70;;;;;;;;;;112551;210;39367;-37
2023/09/28 08:38:11;;;;;;;12.10;10.60;;;;;;;;;;112628;210;44109;-40
2023/09/28 08:40:51;;;;;;;13.40;11.10;;;;;;;;;;112439;210;43356;-38
2023/09/28 08:43:25;;;;;;;12.40;10.70;;;;;;;;;;112520;210;40337;-37
2023/09/28 08:46:03;;;;;;;12.20;10.90;;;;;;;;;;112594;210;41003;-37
2023/09/28 08:48:41;;;;;;;13.60;10.50;;;;;;;;;;112583;210;44223;-37
2023/09/28 08:51:16;;;;;;;13.10;10.40;;;;;;;;;;107871;209;3011362;-39
2023/09/28 08:53:52;;;;;;;13.40;10.80;;;;;;;;;;112546;210;22555;-35
2023/09/28 08:56:28;;;;;;;12.50;10.70;;;;;;;;;;112404;210;39450;-36
2023/09/28 08:59:05;;;;;;;12.10;10.30;;;;;;;;;;112467;210;43805;-37
2023/09/28 09:01:43;;;;;;;12.60;10.90;;;;;;;;;;112400;210;41824;-38
2023/09/28 09:04:20;;;;;;;12.50;10.30;;;;;;;;;;112517;210;39996;-41
2023/09/28 09:06:55;;;;;;;11.50;10.00;;;;;;;;;;112539;210;40867;-37
2023/09/28 09:09:31;;;;;;;12.10;10.30;;;;;;;;;;112532;210;44171;-38
2023/09/28 09:12:11;;;;;;;11.40;10.00;;;;;;;;;;112480;209;43415;-38
2023/09/28 09:14:46;;;;;;;11.20;10.00;;;;;;;;;;112531;210;37750;-38
2023/09/28 09:17:20;;;;;;;11.90;10.20;;;;;;;;;;112563;210;41240;-38
2023/09/28 09:19:59;;;;;;;11.80;10.10;;;;;;;;;;112518;210;44261;-38
2023/09/28 09:22:33;;;;;;;12.10;10.10;;;;;;;;;;112498;209;42462;-38
2023/09/28 09:25:26;;;;;;;12.10;10.70;;;;;;;;;;112568;210;38922;-38
2023/09/28 09:28:02;;;;;;;11.40;10.20;;;;;;;;;;112512;209;39643;-39
2023/09/28 09:30:41;;;;;;;12.50;10.40;;;;;;;;;;112544;210;42602;-38
2023/09/28 09:33:21;;;;;;;12.40;9.90;;;;;;;;;;112545;209;42068;-38
2023/09/28 09:35:56;;;;;;;12.30;10.20;;;;;;;;;;112569;210;38675;-38
2023/09/28 09:38:36;;;;;;;10.80;9.50;;;;;;;;;;112495;210;39761;-38
2023/09/28 09:41:10;;;;;;;12.00;10.70;;;;;;;;;;112448;210;43215;-38
2023/09/28 09:43:49;;;;;;;13.80;12.30;;;;;;;;;;112354;210;42122;-38
2023/09/28 09:46:23;;;;;;;13.40;12.00;;;;;;;;;;112345;210;38748;-38
2023/09/28 09:49:00;;;;;;;13.70;12.30;;;;;;;;;;112385;210;39557;-38
2023/09/28 09:51:36;;;;;;;14.10;12.60;;;;;;;;;;112389;210;42918;-36
2023/09/28 09:54:13;;;;;;;12.30;10.60;;;;;;;;;;112372;210;42204;-37
2023/09/28 09:56:50;;;;;;;11.90;10.40;;;;;;;;;;112560;210;38905;-36
2023/09/28 09:59:26;;;;;;;12.00;10.80;;;;;;;;;;112576;210;39385;-36
2023/09/28 10:02:03;;;;;;;12.20;10.80;;;;;;;;;;112553;210;43193;-39
2023/09/28 10:04:38;;;;;;;13.10;11.10;;;;;;;;;;112536;209;48721;-37
2023/09/28 10:07:16;;;;;;;12.30;10.70;;;;;;;;;;112588;210;39236;-38
2023/09/28 10:09:53;;;;;;;12.30;10.90;;;;;;;;;;112532;210;39760;-37
2023/09/28 10:12:29;;;;;;;12.50;10.80;;;;;;;;;;112550;209;42824;-37
2023/09/28 10:15:08;;;;;;;11.50;10.00;;;;;;;;;;112516;210;48300;-38
2023/09/28 10:17:43;;;;;;;13.10;10.40;;;;;;;;;;112619;210;38609;-38
2023/09/28 10:20:22;;;;;;;11.10;9.60;;;;;;;;;;112574;210;39930;-37
2023/09/28 10:23:13;;;;;;;11.70;9.90;;;;;;;;;;112559;209;43350;-39
2023/09/28 10:26:06;;;;;;;11.60;10.20;;;;;;;;;;112547;209;42115;-42
2023/09/28 10:29:05;;;;;;;11.20;9.90;;;;;;;;;;112563;209;38749;-38
2023/09/28 10:31:43;;;;;;;11.40;10.00;;;;;;;;;;112430;210;41014;-36
2023/09/28 10:34:31;;;;;;;10.80;9.60;;;;;;;;;;112278;209;44182;-36
2023/09/28 10:37:26;;;;;;;11.80;10.00;;;;;;;;;;112463;210;43678;-37
2023/09/28 10:40:08;;;;;;;12.40;10.10;;;;;;;;;;112560;210;38481;-38
2023/09/28 10:42:43;;;;;;;27.40;11.80;;;;;;;;;;112460;210;39646;-38
2023/09/28 10:45:32;;;;;;;18.30;11.00;;;;;;;;;;112162;209;328027;-38
2023/09/28 10:48:10;;;;;;;12.80;9.80;;;;;;;;;;112353;210;42315;-39
2023/09/28 10:50:46;;;;;;;13.50;10.20;;;;;;;;;;112467;210;39955;-39
2023/09/28 10:53:21;;;;;;;11.40;10.00;;;;;;;;;;112486;210;39650;-39
2023/09/28 10:55:56;;;;;;;10.50;9.40;;;;;;;;;;112511;210;51406;-39
2023/09/28 10:58:31;;;;;;;10.90;9.10;;;;;;;;;;112592;210;42054;-39
2023/09/28 11:01:11;;;;;;;10.40;9.10;;;;;;;;;;112436;209;38736;-39
2023/09/28 11:03:50;;;;;;;10.80;9.00;;;;;;;;;;112465;209;42051;-39
2023/09/28 11:06:27;;;;;;;11.50;8.80;;;;;;;;;;112462;210;42937;-39
2023/09/28 11:09:03;;;;;;;10.20;8.90;;;;;;;;;;112308;210;42153;-39
2023/09/28 11:11:40;;;;;;;11.00;8.60;;;;;;;;;;112491;210;41451;-39
2023/09/28 11:14:16;;;;;;;10.70;8.70;;;;;;;;;;112427;210;39761;-39
2023/09/28 11:16:53;;;;;;;10.70;8.80;;;;;;;;;;112467;210;42899;-39
2023/09/28 11:19:30;;;;;;;10.00;8.60;;;;;;;;;;112520;210;42309;-39
2023/09/28 11:22:09;;;;;;;10.30;8.60;;;;;;;;;;112433;210;38411;-39
2023/09/28 11:24:51;;;;;;;9.60;8.20;;;;;;;;;;112444;210;39825;-39
2023/09/28 11:27:29;;;;;;;10.00;8.60;;;;;;;;;;112370;210;42782;-39
2023/09/28 11:30:11;;;;;;;10.00;8.50;;;;;;;;;;112463;210;42120;-39
2023/09/28 11:32:54;;;;;;;10.80;8.40;;;;;;;;;;112430;210;38669;-39
2023/09/28 11:35:29;;;;;;;9.50;8.00;;;;;;;;;;112463;209;39748;-39
2023/09/28 11:38:10;;;;;;;10.10;8.10;;;;;;;;;;112401;210;42953;-39
2023/09/28 11:40:51;;;;;;;8.70;7.80;;;;;;;;;;112452;210;41920;-39
2023/09/28 11:43:25;;;;;;;9.00;8.10;;;;;;;;;;112456;210;38833;-39
2023/09/28 11:46:08;;;;;;;10.50;8.30;;;;;;;;;;112355;210;39557;-39
2023/09/28 11:48:46;;;;;;;9.20;7.90;;;;;;;;;;112441;210;43138;-39
2023/09/28 11:51:20;;;;;;;9.40;7.70;;;;;;;;;;112439;210;41829;-40
2023/09/28 11:53:58;;;;;;;8.50;7.60;;;;;;;;;;112525;210;39010;-37
2023/09/28 11:56:33;;;;;;;9.00;7.50;;;;;;;;;;112431;210;39200;-37
2023/09/28 11:59:16;;;;;;;9.20;7.70;;;;;;;;;;112460;210;42746;-39
2023/09/28 12:01:55;;;;;;;9.20;7.40;;;;;;;;;;112460;210;41946;-38
2023/09/28 12:04:29;;;;;;;8.50;7.10;;;;;;;;;;112428;210;40105;-39
2023/09/28 12:07:08;;;;;;;8.80;7.40;;;;;;;;;;112453;209;41165;-41
2023/09/28 12:09:42;;;;;;;8.60;6.90;;;;;;;;;;112434;210;43265;-40
2023/09/28 12:12:32;;;;;;;8.90;6.70;;;;;;;;;;112366;210;43269;-39
2023/09/28 12:15:10;;;;;;;8.40;6.80;;;;;;;;;;112469;210;40162;-39
2023/09/28 12:17:51;;;;;;;9.30;6.60;;;;;;;;;;112412;210;40615;-39
2023/09/28 12:20:26;;;;;;;8.10;6.60;;;;;;;;;;112423;210;43118;-39
2023/09/28 12:23:01;;;;;;;8.10;6.50;;;;;;;;;;112491;210;43498;-42
2023/09/28 12:25:38;;;;;;;8.10;6.60;;;;;;;;;;112516;209;40127;-38
2023/09/28 12:28:17;;;;;;;9.00;7.00;;;;;;;;;;112457;210;40286;-38
2023/09/28 12:30:51;;;;;;;9.60;6.60;;;;;;;;;;112429;210;44081;-39
2023/09/28 12:33:34;;;;;;;8.30;6.50;;;;;;;;;;112377;210;42250;-38
2023/09/28 12:36:09;;;;;;;8.40;6.50;;;;;;;;;;112419;209;38747;-39
2023/09/28 12:38:51;;;;;;;7.60;6.00;;;;;;;;;;112386;210;40911;-39
2023/09/28 12:41:28;;;;;;;8.00;6.40;;;;;;;;;;112349;210;43018;-39
2023/09/28 12:44:04;;;;;;;8.20;6.10;;;;;;;;;;112365;210;43410;-38
2023/09/28 12:46:40;;;;;;;7.90;6.00;;;;;;;;;;112457;209;38836;-42
2023/09/28 12:49:20;;;;;;;9.00;6.30;;;;;;;;;;112424;210;39801;-37
2023/09/28 12:51:54;;;;;;;7.40;5.90;;;;;;;;;;112396;210;42808;-38
2023/09/28 12:54:29;;;;;;;8.10;6.00;;;;;;;;;;112531;210;42017;-38
2023/09/28 12:57:04;;;;;;;7.60;6.20;;;;;;;;;;112392;210;38757;-39
2023/09/28 12:59:46;;;;;;;7.30;6.10;;;;;;;;;;112570;210;39817;-40
2023/09/28 13:02:24;;;;;;;7.40;6.20;;;;;;;;;;112216;210;175418;-43
2023/09/28 13:05:00;;;;;;;9.60;6.70;;;;;;;;;;112200;210;42183;-40
2023/09/28 13:07:38;;;;;;;7.60;6.10;;;;;;;;;;112405;210;38666;-40
2023/09/28 13:10:20;;;;;;;9.00;6.60;;;;;;;;;;112548;210;39866;-38
2023/09/28 13:12:55;;;;;;;8.60;6.40;;;;;;;;;;112470;210;42929;-38
2023/09/28 13:15:30;;;;;;;8.80;6.60;;;;;;;;;;112417;210;42106;-34
2023/09/28 13:18:08;;;;;;;8.10;6.70;;;;;;;;;;112375;209;176579;-41
2023/09/28 13:20:43;;;;;;;8.40;6.80;;;;;;;;;;112461;210;39614;-41
2023/09/28 13:23:21;;;;;;;8.20;6.60;;;;;;;;;;112438;210;43136;-41
2023/09/28 13:25:59;;;;;;;9.50;7.00;;;;;;;;;;112526;210;42154;-41
2023/09/28 13:28:33;;;;;;;9.20;6.60;;;;;;;;;;112358;210;38731;-41
2023/09/28 13:31:09;;;;;;;8.30;7.00;;;;;;;;;;112428;210;40597;-42
2023/09/28 13:33:43;;;;;;;8.80;7.20;;;;;;;;;;112548;210;43379;-42
2023/09/28 13:36:20;;;;;;;8.50;7.10;;;;;;;;;;112405;210;43314;-42
2023/09/28 13:39:03;;;;;;;10.20;7.20;;;;;;;;;;112297;210;39986;-42
2023/09/28 13:41:42;;;;;;;9.50;7.30;;;;;;;;;;112457;210;40082;-42
2023/09/28 13:44:20;;;;;;;8.00;6.80;;;;;;;;;;112429;210;44041;-42
2023/09/28 13:47:00;;;;;;;8.30;7.10;;;;;;;;;;112422;209;43333;-42
2023/09/28 13:49:35;;;;;;;8.30;7.00;;;;;;;;;;112430;210;38797;-42
2023/09/28 13:52:11;;;;;;;8.20;7.10;;;;;;;;;;112468;210;39931;-42
2023/09/28 13:54:51;;;;;;;8.90;6.80;;;;;;;;;;112417;210;43105;-42
2023/09/28 13:57:25;;;;;;;9.40;7.00;;;;;;;;;;112401;210;43308;-41
2023/09/28 14:00:13;;;;;;;9.20;7.00;;;;;;;;;;112373;210;38610;-44
2023/09/28 14:02:58;;;;;;;8.40;7.00;;;;;;;;;;112446;210;39536;-42
2023/09/28 14:05:40;;;;;;;8.30;7.10;;;;;;;;;;112411;210;43156;-42
2023/09/28 14:08:17;;;;;;;10.00;7.40;;;;;;;;;;112395;210;41794;-42
2023/09/28 14:10:55;;;;;;;9.80;6.90;;;;;;;;;;112470;209;38868;-42
2023/09/28 14:13:37;;;;;;;9.20;6.80;;;;;;;;;;112558;209;41650;-41
2023/09/28 14:16:12;;;;;;;8.40;7.00;;;;;;;;;;112460;209;42905;-41
2023/09/28 14:18:49;;;;;;;10.20;7.30;;;;;;;;;;112500;209;41979;-41
2023/09/28 14:21:25;;;;;;;9.60;6.90;;;;;;;;;;112446;210;39051;-44
2023/09/28 14:24:05;;;;;;;8.90;7.00;;;;;;;;;;112544;210;39907;-42
2023/09/28 14:26:40;;;;;;;8.60;6.90;;;;;;;;;;112362;209;42484;-43
2023/09/28 14:29:18;;;;;;;8.90;6.50;;;;;;;;;;112456;210;42324;-43
2023/09/28 14:31:55;;;;;;;9.00;6.70;;;;;;;;;;112557;210;38678;-41
2023/09/28 14:34:29;;;;;;;8.10;6.60;;;;;;;;;;112441;210;39547;-42
2023/09/28 14:37:04;;;;;;;8.90;7.00;;;;;;;;;;112464;210;43172;-41
2023/09/28 14:39:41;;;;;;;8.40;6.70;;;;;;;;;;112381;209;42415;-41
2023/09/28 14:42:15;;;;;;;9.40;7.40;;;;;;;;;;112469;209;38849;-41
2023/09/28 14:44:50;;;;;;;8.70;6.50;;;;;;;;;;112494;209;40278;-41
2023/09/28 14:47:28;;;;;;;8.20;6.40;;;;;;;;;;112522;209;42808;-41
2023/09/28 14:50:05;;;;;;;9.00;6.70;;;;;;;;;;112359;210;42074;-41
2023/09/28 14:52:39;;;;;;;8.30;6.50;;;;;;;;;;112483;210;38858;-43
2023/09/28 14:55:17;;;;;;;9.30;7.00;;;;;;;;;;112456;210;40829;-41
2023/09/28 14:57:51;;;;;;;9.40;6.80;;;;;;;;;;112564;210;42554;-38
2023/09/28 15:00:29;;;;;;;8.90;6.70;;;;;;;;;;112493;209;42144;-39
2023/09/28 15:03:04;;;;;;;9.20;6.60;;;;;;;;;;112473;210;39968;-40
2023/09/28 15:05:47;;;;;;;8.60;6.50;;;;;;;;;;112399;210;39882;-40
2023/09/28 15:08:22;;;;;;;8.20;6.70;;;;;;;;;;112406;210;42799;-39
2023/09/28 15:10:59;;;;;;;9.70;6.40;;;;;;;;;;112394;210;48134;-40
2023/09/28 15:13:41;;;;;;;7.90;6.10;;;;;;;;;;112398;210;38748;-43
2023/09/28 15:16:18;;;;;;;8.90;6.80;;;;;;;;;;112406;210;39716;-43
2023/09/28 15:18:59;;;;;;;8.00;6.40;;;;;;;;;;112412;209;43001;-44
2023/09/28 15:21:35;;;;;;;8.10;6.20;;;;;;;;;;112455;210;42531;-44
2023/09/28 15:24:10;;;;;;;7.30;6.10;;;;;;;;;;112526;210;39929;-43
2023/09/28 15:26:44;;;;;;;8.20;6.10;;;;;;;;;;112377;210;39809;-43